0TX7 weather

CLOSED Lazy K Acres Airport
Grapevine, Texas, United States

Public forecast

Using degrees Fahrenheit for public forecast. Weather courtesy of forecast.io.

METAR (pilot weather report)

Closest report is Dallas Fort Worth International Airport, 6.5 nm (12.0 km) ESE. Retrieved 2019/09/19 09:14 UTC (42 minutes ago):

KDFW 190914Z 10004KT 10SM BKN018 24/21 A2987 RMK AO2 T02390211

TAF (pilot weather forecast)

Closest forecast is Dallas Fort Worth International Airport, 6.5 nm (12.0 km) ESE. Retrieved 2019/09/19 06:22 UTC (4 hours ago):

TAF KDFW 190520Z 1906/2012 08009KT P6SM SCT050 FM191000 07005KT P6SM BKN012 FM191900 07011KT P6SM VCSH BKN025 FM200100 08008KT P6SM BKN025 FM200600 09007KT P6SM SCT007 BKN015